Terminal Aerodrome Forecast
Issued by NWS

Home | Current Version | Previous Version | Text Only | Print | Product List | Glossary On
Versions: 1 2 3 4 5 6 7 8 9 10 11 12
000
FTUS46 KSEW 050525
TAFPAE
TAF
KPAE 050525Z 0506/0606 02004KT P6SM FEW250
     FM051800 33009KT P6SM FEW250
     FM060300 VRB03KT P6SM FEW250=

USA.gov is the U.S. government's official web portal to all federal, state and local government web resources and services.